createdAt,value
2023-12-19T00:00:38.999Z,5.00
2023-12-19T00:03:06.663Z,5.23
2023-12-19T00:05:34.067Z,4.40
2023-12-19T00:08:02.841Z,5.03
2023-12-19T00:10:30.591Z,5.17
2023-12-19T00:12:57.998Z,4.17
2023-12-19T00:15:25.427Z,4.47
2023-12-19T00:17:52.934Z,4.30
2023-12-19T00:20:20.339Z,5.90
2023-12-19T00:22:48.530Z,5.50
2023-12-19T00:25:15.930Z,4.43
2023-12-19T00:27:43.441Z,2.60
2023-12-19T00:30:11.372Z,2.80
2023-12-19T00:32:39.591Z,2.70
2023-12-19T00:35:07.552Z,2.77
2023-12-19T00:37:35.038Z,2.33
2023-12-19T00:40:03.204Z,2.37
2023-12-19T00:42:30.522Z,2.40
2023-12-19T00:44:57.911Z,2.20
2023-12-19T00:47:25.194Z,2.40
2023-12-19T00:49:52.638Z,2.70
2023-12-19T00:52:20.073Z,2.50
2023-12-19T00:54:47.393Z,2.40
2023-12-19T00:57:14.814Z,2.60
2023-12-19T00:59:44.464Z,2.40
2023-12-19T01:02:11.723Z,2.40
2023-12-19T01:04:39.231Z,3.07
2023-12-19T01:07:06.726Z,2.90
2023-12-19T01:09:34.056Z,3.00
2023-12-19T01:12:01.639Z,3.10
2023-12-19T01:14:28.912Z,3.10
2023-12-19T01:16:56.250Z,3.33
2023-12-19T01:19:23.642Z,3.37
2023-12-19T01:21:51.162Z,3.10
2023-12-19T01:24:18.563Z,3.10
2023-12-19T01:26:48.025Z,2.83
2023-12-19T01:29:15.307Z,3.00
2023-12-19T01:31:42.941Z,2.67
2023-12-19T01:34:10.926Z,3.37
2023-12-19T01:36:42.777Z,2.80
2023-12-19T01:39:23.724Z,3.20
2023-12-19T01:41:51.054Z,3.30
2023-12-19T01:44:19.612Z,3.83
2023-12-19T01:46:47.830Z,4.00
2023-12-19T01:49:16.072Z,3.50
2023-12-19T01:51:43.867Z,3.50
2023-12-19T01:54:12.243Z,3.53
2023-12-19T01:56:40.276Z,3.93
2023-12-19T01:59:08.556Z,3.87
2023-12-19T02:01:36.380Z,3.80
2023-12-19T02:04:04.733Z,4.30
2023-12-19T02:06:34.767Z,3.87
2023-12-19T02:09:02.997Z,4.33
2023-12-19T02:11:30.839Z,3.93
2023-12-19T02:13:59.616Z,4.27
2023-12-19T02:16:27.676Z,4.23
2023-12-19T02:19:02.925Z,4.20
2023-12-19T02:21:31.065Z,3.60
2023-12-19T02:23:58.706Z,3.83
2023-12-19T02:26:26.640Z,3.60
2023-12-19T02:28:54.179Z,3.63
2023-12-19T02:31:22.106Z,4.03
2023-12-19T02:33:49.844Z,3.70
2023-12-19T02:36:18.080Z,4.17
2023-12-19T02:38:45.521Z,3.73
2023-12-19T02:41:12.885Z,3.50
2023-12-19T02:43:53.334Z,3.50
2023-12-19T02:46:24.421Z,3.10
2023-12-19T02:48:52.191Z,3.73
2023-12-19T02:51:21.296Z,3.30
2023-12-19T02:53:48.957Z,3.40
2023-12-19T02:56:16.286Z,3.60
2023-12-19T02:58:43.942Z,3.50
2023-12-19T03:01:11.489Z,3.70
2023-12-19T03:03:42.698Z,3.37
2023-12-19T03:06:10.491Z,3.40
2023-12-19T03:08:38.054Z,3.83
2023-12-19T03:11:05.385Z,3.60
2023-12-19T03:13:32.648Z,3.57
2023-12-19T03:16:00.280Z,3.43
2023-12-19T03:18:27.815Z,3.67
2023-12-19T03:20:56.132Z,3.33
2023-12-19T03:23:23.592Z,3.50
2023-12-19T03:25:51.357Z,3.10
2023-12-19T03:28:18.644Z,3.20
2023-12-19T03:30:46.059Z,3.13
2023-12-19T03:33:13.476Z,3.10
2023-12-19T03:35:41.216Z,3.00
2023-12-19T03:38:08.928Z,2.90
2023-12-19T03:40:37.990Z,3.10
2023-12-19T03:43:05.318Z,3.00
2023-12-19T03:45:32.665Z,3.20
2023-12-19T03:48:00.150Z,3.00
2023-12-19T03:50:27.728Z,3.33
2023-12-19T03:52:55.037Z,3.70
2023-12-19T03:55:22.366Z,3.03
2023-12-19T03:57:49.679Z,3.73
2023-12-19T04:00:16.979Z,3.40
2023-12-19T04:02:44.476Z,3.20
2023-12-19T04:05:11.907Z,3.53
2023-12-19T04:07:39.196Z,3.13
2023-12-19T04:10:06.842Z,3.10
2023-12-19T04:12:34.306Z,2.83
2023-12-19T04:15:01.626Z,2.97
2023-12-19T04:17:29.036Z,2.60
2023-12-19T04:19:56.515Z,2.90
2023-12-19T04:22:23.955Z,2.80
2023-12-19T04:24:51.320Z,2.47
2023-12-19T04:27:18.625Z,2.80
2023-12-19T04:29:46.903Z,2.57
2023-12-19T04:32:14.980Z,2.53
2023-12-19T04:34:42.434Z,2.40
2023-12-19T04:37:09.851Z,2.63
2023-12-19T04:39:37.311Z,2.20
2023-12-19T04:42:08.453Z,2.40
2023-12-19T04:44:35.812Z,1.93
2023-12-19T04:47:03.818Z,2.20
2023-12-19T04:49:31.407Z,2.10
2023-12-19T04:51:58.859Z,2.30
2023-12-19T04:54:26.637Z,1.90
2023-12-19T04:56:53.968Z,2.10
2023-12-19T04:59:21.601Z,2.17
2023-12-19T05:01:48.977Z,2.10
2023-12-19T05:04:16.334Z,2.20
2023-12-19T05:06:43.776Z,1.97
2023-12-19T05:09:11.105Z,1.80
2023-12-19T05:11:38.384Z,2.00
2023-12-19T05:14:05.661Z,1.83
2023-12-19T05:16:33.000Z,2.10
2023-12-19T05:19:00.417Z,2.10
2023-12-19T05:21:27.748Z,2.30
2023-12-19T05:23:55.356Z,2.60
2023-12-19T05:26:22.730Z,2.57
2023-12-19T05:28:51.403Z,2.60
2023-12-19T05:31:19.625Z,2.60
2023-12-19T05:33:47.291Z,2.83
2023-12-19T05:36:15.144Z,2.53
2023-12-19T05:38:42.454Z,2.43
2023-12-19T05:41:15.803Z,2.20
2023-12-19T05:43:43.363Z,2.00
2023-12-19T05:46:10.851Z,1.90
2023-12-19T05:48:38.474Z,1.80
2023-12-19T05:51:06.169Z,1.97
2023-12-19T05:53:33.481Z,1.90
2023-12-19T05:56:01.271Z,1.90
2023-12-19T05:58:28.524Z,1.73
2023-12-19T06:00:57.350Z,1.90
2023-12-19T06:03:25.001Z,1.60
2023-12-19T06:05:52.382Z,1.60
2023-12-19T06:08:19.709Z,1.50
2023-12-19T06:10:47.652Z,1.80
2023-12-19T06:13:15.469Z,1.80
2023-12-19T06:15:42.888Z,1.60
2023-12-19T06:18:10.370Z,1.90
2023-12-19T06:20:37.798Z,1.63
2023-12-19T06:23:05.120Z,1.40
2023-12-19T06:25:33.929Z,1.70
2023-12-19T06:28:01.396Z,1.90
2023-12-19T06:30:32.222Z,1.70
2023-12-19T06:33:02.588Z,2.10
2023-12-19T06:35:31.080Z,2.13
2023-12-19T06:37:58.390Z,1.80
2023-12-19T06:40:26.881Z,2.30
2023-12-19T06:42:55.659Z,2.07
2023-12-19T06:45:23.243Z,1.80
2023-12-19T06:47:50.663Z,1.80
2023-12-19T06:50:19.718Z,2.00
2023-12-19T06:52:47.952Z,2.20
2023-12-19T06:55:15.528Z,2.20
2023-12-19T06:57:43.050Z,2.20
2023-12-19T07:00:10.880Z,2.37
2023-12-19T07:02:38.224Z,2.40
2023-12-19T07:05:06.238Z,2.47
2023-12-19T07:07:33.698Z,2.33
2023-12-19T07:10:02.102Z,2.50
2023-12-19T07:12:29.683Z,2.37
2023-12-19T07:14:57.103Z,2.63
2023-12-19T07:17:24.463Z,2.30
2023-12-19T07:19:52.144Z,2.20
2023-12-19T07:22:19.588Z,2.17
2023-12-19T07:24:47.372Z,2.10
2023-12-19T07:27:14.769Z,2.40
2023-12-19T07:29:42.096Z,2.20
2023-12-19T07:32:10.238Z,2.10
2023-12-19T07:34:37.653Z,1.90
2023-12-19T07:37:05.179Z,2.20
2023-12-19T07:39:32.486Z,2.27
2023-12-19T07:41:59.794Z,2.20
2023-12-19T07:44:27.085Z,2.10
2023-12-19T07:46:54.361Z,2.50
2023-12-19T07:49:21.787Z,2.60
2023-12-19T07:51:50.123Z,2.67
2023-12-19T07:54:18.350Z,2.40
2023-12-19T07:56:45.626Z,2.30
2023-12-19T07:59:14.329Z,2.57
2023-12-19T08:01:42.492Z,3.27
2023-12-19T08:04:10.153Z,3.77
2023-12-19T08:06:37.721Z,3.47
2023-12-19T08:09:05.521Z,3.20
2023-12-19T08:11:32.780Z,3.13
2023-12-19T08:14:00.082Z,3.13
2023-12-19T08:16:27.399Z,2.23
2023-12-19T08:18:54.838Z,2.40
2023-12-19T08:21:22.193Z,2.57
2023-12-19T08:23:49.915Z,2.40
2023-12-19T08:26:17.328Z,2.20
2023-12-19T08:28:44.768Z,2.80
2023-12-19T08:31:12.311Z,2.50
2023-12-19T08:33:42.507Z,2.97
2023-12-19T08:36:32.337Z,3.13
2023-12-19T08:38:57.570Z,3.90
2023-12-19T08:41:25.296Z,3.87
2023-12-19T08:43:53.207Z,3.67
2023-12-19T08:46:20.940Z,4.20
2023-12-19T08:48:49.811Z,2.30
2023-12-19T08:51:18.712Z,3.40
2023-12-19T08:53:46.084Z,2.43
2023-12-19T08:56:13.448Z,4.20
2023-12-19T08:58:40.834Z,2.50
2023-12-19T09:01:08.254Z,3.73
2023-12-19T09:03:36.034Z,2.63
2023-12-19T09:06:03.599Z,2.50
2023-12-19T09:08:30.896Z,3.93
2023-12-19T09:10:58.202Z,2.37
2023-12-19T09:13:25.676Z,3.30
2023-12-19T09:15:53.645Z,2.87
2023-12-19T09:18:25.371Z,3.37
2023-12-19T09:20:52.967Z,4.00
2023-12-19T09:23:20.323Z,3.97
2023-12-19T09:25:47.689Z,3.73
2023-12-19T09:28:15.258Z,3.33
2023-12-19T09:30:42.656Z,2.10
2023-12-19T09:33:10.074Z,2.60
2023-12-19T09:35:37.432Z,3.13
2023-12-19T09:38:05.502Z,5.30
2023-12-19T09:40:33.869Z,2.80
2023-12-19T09:43:01.416Z,3.80
2023-12-19T09:45:28.886Z,2.60
2023-12-19T09:48:00.703Z,4.00
2023-12-19T09:50:32.281Z,3.13
2023-12-19T09:53:01.208Z,3.20
2023-12-19T09:55:30.333Z,2.47
2023-12-19T09:57:59.597Z,2.73
2023-12-19T10:00:30.508Z,2.00
2023-12-19T10:02:58.276Z,2.50
2023-12-19T10:05:25.649Z,2.00
2023-12-19T10:07:53.074Z,2.50
2023-12-19T10:10:20.914Z,2.10
2023-12-19T10:12:57.143Z,2.20
2023-12-19T10:15:27.034Z,2.00
2023-12-19T10:18:05.212Z,2.50
2023-12-19T10:20:33.212Z,2.50
2023-12-19T10:23:04.556Z,2.70
2023-12-19T10:25:39.451Z,3.90
2023-12-19T10:28:13.746Z,2.20
2023-12-19T10:30:42.089Z,3.03
2023-12-19T10:33:09.877Z,2.33
2023-12-19T10:35:38.131Z,1.80
2023-12-19T10:38:08.507Z,2.90
2023-12-19T10:40:37.091Z,2.23
2023-12-19T10:43:04.950Z,2.20
2023-12-19T10:45:34.091Z,2.20
2023-12-19T10:48:01.961Z,2.70
2023-12-19T10:50:30.411Z,2.17
2023-12-19T10:53:05.092Z,1.87
2023-12-19T10:55:42.460Z,2.17
2023-12-19T10:58:13.718Z,2.43
2023-12-19T11:00:43.047Z,1.70
2023-12-19T11:03:38.925Z,1.40
2023-12-19T11:06:11.018Z,2.50
2023-12-19T11:08:41.697Z,1.40
2023-12-19T11:11:20.149Z,1.77
2023-12-19T11:13:49.613Z,1.40
2023-12-19T11:16:26.965Z,1.50
2023-12-19T11:19:09.467Z,1.40
2023-12-19T11:21:45.635Z,1.30
2023-12-19T11:24:31.592Z,1.30
2023-12-19T11:27:12.990Z,1.40
2023-12-19T11:29:57.441Z,1.60
2023-12-19T11:32:27.930Z,1.50
2023-12-19T11:35:15.693Z,2.00
2023-12-19T11:37:47.619Z,1.40
2023-12-19T11:40:47.308Z,1.43
2023-12-19T11:43:30.452Z,1.87
2023-12-19T11:46:04.705Z,1.47
2023-12-19T11:48:45.339Z,1.67
2023-12-19T11:51:13.109Z,1.23
2023-12-19T11:53:41.899Z,1.30
2023-12-19T11:56:13.582Z,2.13
2023-12-19T11:58:52.300Z,1.47
2023-12-19T12:01:21.926Z,1.53
2023-12-19T12:03:49.500Z,1.30
2023-12-19T12:06:21.115Z,1.40
2023-12-19T12:08:55.252Z,1.20
2023-12-19T12:11:22.873Z,1.40
2023-12-19T12:14:10.399Z,2.67
2023-12-19T12:16:38.218Z,1.33
2023-12-19T12:19:12.265Z,2.00
2023-12-19T12:21:52.364Z,1.43
2023-12-19T12:24:31.078Z,1.40
2023-12-19T12:27:10.779Z,1.50
2023-12-19T12:29:39.166Z,1.30
2023-12-19T12:32:07.417Z,1.50
2023-12-19T12:34:34.954Z,1.27
2023-12-19T12:37:03.719Z,1.30
2023-12-19T12:39:31.489Z,1.77
2023-12-19T12:42:06.515Z,1.10
2023-12-19T12:44:34.875Z,1.20
2023-12-19T12:47:04.645Z,1.10
2023-12-19T12:49:33.592Z,1.33
2023-12-19T12:52:01.220Z,1.20
2023-12-19T12:54:31.577Z,1.23
2023-12-19T12:56:59.261Z,1.70
2023-12-19T12:59:28.513Z,3.10
2023-12-19T13:01:56.433Z,1.40
2023-12-19T13:04:25.098Z,1.47
2023-12-19T13:06:52.586Z,1.23
2023-12-19T13:09:22.677Z,1.10
2023-12-19T13:11:55.175Z,1.40
2023-12-19T13:14:23.381Z,1.53
2023-12-19T13:16:50.722Z,1.30
2023-12-19T13:19:19.387Z,1.30
2023-12-19T13:21:47.483Z,1.50
2023-12-19T13:24:15.920Z,1.33
2023-12-19T13:26:43.309Z,1.30
2023-12-19T13:29:10.623Z,1.50
2023-12-19T13:31:38.893Z,1.40
2023-12-19T13:34:06.619Z,1.40
2023-12-19T13:36:39.630Z,1.50
2023-12-19T13:39:08.957Z,1.70
2023-12-19T13:41:36.702Z,1.40
2023-12-19T13:44:04.019Z,1.60
2023-12-19T13:46:31.301Z,1.60
2023-12-19T13:48:58.929Z,2.03
2023-12-19T13:51:26.381Z,1.40
2023-12-19T13:53:53.669Z,5.50
2023-12-19T13:56:22.097Z,1.60
2023-12-19T13:58:49.896Z,1.60
2023-12-19T14:01:17.549Z,1.33
2023-12-19T14:03:45.383Z,1.50
2023-12-19T14:06:13.199Z,1.50
2023-12-19T14:08:46.343Z,2.30
2023-12-19T14:11:13.719Z,2.90
2023-12-19T14:13:41.058Z,1.83
2023-12-19T14:16:11.452Z,1.50
2023-12-19T14:18:40.617Z,2.10
2023-12-19T14:21:08.113Z,1.97
2023-12-19T14:23:36.825Z,2.27
2023-12-19T14:26:05.632Z,1.90
2023-12-19T14:28:33.260Z,2.10
2023-12-19T14:31:00.911Z,2.20
2023-12-19T14:33:30.174Z,1.80
2023-12-19T14:35:58.649Z,1.97
2023-12-19T14:38:25.913Z,2.07
2023-12-19T14:40:53.325Z,2.23
2023-12-19T14:43:25.178Z,2.60
2023-12-19T14:45:52.626Z,2.80
2023-12-19T14:48:20.140Z,2.67
2023-12-19T14:50:48.012Z,2.20
2023-12-19T14:53:15.483Z,2.07
2023-12-19T14:55:43.009Z,1.93
2023-12-19T14:58:10.478Z,1.80
2023-12-19T15:00:38.425Z,2.10
2023-12-19T15:03:06.616Z,2.20
2023-12-19T15:05:33.930Z,2.50
2023-12-19T15:08:01.229Z,2.50
2023-12-19T15:10:28.529Z,2.70
2023-12-19T15:12:56.023Z,2.40
2023-12-19T15:15:24.892Z,2.33
2023-12-19T15:17:54.671Z,2.03
2023-12-19T15:20:22.290Z,2.40
2023-12-19T15:22:50.201Z,3.13
2023-12-19T15:25:17.830Z,2.40
2023-12-19T15:27:45.389Z,3.13
2023-12-19T15:30:14.153Z,2.47
2023-12-19T15:32:42.705Z,2.70
2023-12-19T15:35:10.171Z,2.40
2023-12-19T15:37:37.519Z,3.07
2023-12-19T15:40:05.367Z,2.93
2023-12-19T15:42:32.751Z,3.03
2023-12-19T15:45:00.062Z,3.90
2023-12-19T15:47:27.318Z,4.13
2023-12-19T15:49:54.711Z,5.60
2023-12-19T15:52:22.130Z,6.47
2023-12-19T15:54:49.618Z,5.67
2023-12-19T15:57:16.969Z,4.33
2023-12-19T15:59:44.515Z,5.47
2023-12-19T16:02:12.008Z,6.13
2023-12-19T16:04:45.954Z,5.33
2023-12-19T16:07:13.759Z,5.90
2023-12-19T16:09:41.808Z,6.87
2023-12-19T16:12:10.223Z,7.20
2023-12-19T16:14:37.645Z,5.87
2023-12-19T16:17:05.048Z,5.33
2023-12-19T16:19:32.636Z,6.27
2023-12-19T16:22:00.047Z,5.90
2023-12-19T16:24:27.389Z,5.73
2023-12-19T16:26:54.719Z,5.67
2023-12-19T16:29:22.037Z,5.70
2023-12-19T16:31:52.816Z,8.47
2023-12-19T16:34:21.606Z,6.97
2023-12-19T16:36:49.523Z,7.43
2023-12-19T16:39:16.887Z,7.50
2023-12-19T16:41:44.219Z,7.63
2023-12-19T16:44:11.598Z,7.60
2023-12-19T16:46:42.771Z,7.30
2023-12-19T16:49:12.874Z,7.97
2023-12-19T16:51:40.642Z,8.00
2023-12-19T16:54:08.168Z,7.63
2023-12-19T16:56:37.394Z,7.67
2023-12-19T16:59:05.865Z,8.83
2023-12-19T17:01:33.282Z,8.87
2023-12-19T17:04:00.959Z,8.57
2023-12-19T17:06:30.623Z,7.33
2023-12-19T17:08:57.913Z,6.60
2023-12-19T17:11:26.949Z,7.07
2023-12-19T17:13:55.044Z,6.27
2023-12-19T17:16:22.392Z,8.60
2023-12-19T17:18:49.785Z,8.50
2023-12-19T17:21:17.121Z,7.80
2023-12-19T17:23:49.103Z,7.50
2023-12-19T17:26:21.506Z,6.27
2023-12-19T17:28:49.194Z,6.80
2023-12-19T17:31:16.733Z,6.50
2023-12-19T17:33:44.154Z,7.07
2023-12-19T17:36:12.987Z,6.37
2023-12-19T17:38:40.510Z,8.30
2023-12-19T17:41:07.837Z,7.70
2023-12-19T17:43:35.162Z,6.90
2023-12-19T17:46:02.510Z,6.37
2023-12-19T17:48:29.833Z,7.30
2023-12-19T17:50:57.146Z,7.40
2023-12-19T17:53:24.516Z,6.87
2023-12-19T17:55:51.810Z,10.40
2023-12-19T17:58:19.148Z,5.27
2023-12-19T18:00:46.476Z,4.23
2023-12-19T18:03:14.548Z,4.17
2023-12-19T18:05:41.847Z,12.10
2023-12-19T18:08:09.153Z,32.87
2023-12-19T18:10:38.404Z,18.03
2023-12-19T18:13:05.879Z,18.30
2023-12-19T18:15:33.279Z,17.37
2023-12-19T18:18:00.716Z,21.40
2023-12-19T18:20:28.060Z,13.53
2023-12-19T18:22:55.353Z,10.20
2023-12-19T18:25:22.667Z,11.50
2023-12-19T18:27:50.139Z,5.83
2023-12-19T18:30:17.711Z,7.60
2023-12-19T18:32:45.897Z,9.20
2023-12-19T18:35:15.111Z,8.20
2023-12-19T18:37:42.406Z,10.33
2023-12-19T18:40:10.219Z,8.13
2023-12-19T18:42:37.710Z,2.97
2023-12-19T18:45:06.833Z,3.10
2023-12-19T18:47:35.775Z,5.20
2023-12-19T18:50:04.330Z,2.37
2023-12-19T18:52:31.719Z,3.03
2023-12-19T18:54:59.146Z,3.43
2023-12-19T18:57:26.454Z,2.43
2023-12-19T18:59:53.880Z,5.47
2023-12-19T19:02:21.227Z,5.07
2023-12-19T19:04:49.461Z,3.57
2023-12-19T19:07:16.893Z,9.70
2023-12-19T19:09:45.771Z,7.73
2023-12-19T19:12:13.179Z,2.80
2023-12-19T19:14:40.487Z,2.60
2023-12-19T19:17:09.437Z,3.30
2023-12-19T19:19:37.169Z,2.47
2023-12-19T19:22:05.199Z,2.50
2023-12-19T19:24:32.842Z,2.70
2023-12-19T19:27:00.415Z,3.10
2023-12-19T19:29:28.030Z,4.80
2023-12-19T19:31:55.776Z,2.40
2023-12-19T19:34:26.093Z,2.30
2023-12-19T19:36:54.245Z,2.20
2023-12-19T19:39:23.274Z,2.30
2023-12-19T19:41:50.867Z,3.20
2023-12-19T19:44:18.168Z,2.57
2023-12-19T19:46:45.630Z,2.73
2023-12-19T19:49:13.798Z,3.00
2023-12-19T19:51:41.272Z,3.13
2023-12-19T19:54:08.628Z,2.80
2023-12-19T19:56:35.941Z,2.40
2023-12-19T19:59:04.616Z,3.03
2023-12-19T20:01:32.320Z,2.47
2023-12-19T20:03:59.933Z,2.70
2023-12-19T20:06:27.297Z,2.67
2023-12-19T20:08:54.658Z,2.83
2023-12-19T20:11:21.965Z,4.47
2023-12-19T20:13:49.304Z,2.80
2023-12-19T20:16:16.630Z,2.73
2023-12-19T20:18:44.197Z,2.80
2023-12-19T20:21:12.087Z,3.00
2023-12-19T20:23:39.433Z,2.30
2023-12-19T20:26:06.688Z,2.90
2023-12-19T20:28:34.929Z,3.33
2023-12-19T20:31:02.526Z,2.60
2023-12-19T20:33:29.891Z,2.80
2023-12-19T20:35:57.228Z,3.23
2023-12-19T20:38:24.603Z,2.80
2023-12-19T20:40:52.088Z,4.20
2023-12-19T20:43:19.542Z,3.57
2023-12-19T20:45:46.974Z,4.33
2023-12-19T20:48:16.724Z,4.80
2023-12-19T20:50:44.429Z,3.23
2023-12-19T20:53:11.854Z,4.53
2023-12-19T20:55:39.273Z,4.50
2023-12-19T20:58:07.120Z,3.70
2023-12-19T21:00:35.054Z,3.90
2023-12-19T21:03:02.406Z,3.50
2023-12-19T21:05:29.734Z,3.50
2023-12-19T21:07:57.101Z,3.77
2023-12-19T21:10:24.357Z,7.70
2023-12-19T21:12:51.686Z,39.70
2023-12-19T21:15:19.072Z,54.20
2023-12-19T21:17:46.466Z,26.53
2023-12-19T21:20:14.395Z,13.90
2023-12-19T21:22:42.000Z,6.07
2023-12-19T21:25:09.702Z,13.83
2023-12-19T21:27:37.294Z,17.77
2023-12-19T21:30:05.827Z,26.87
2023-12-19T21:32:33.231Z,8.93
2023-12-19T21:35:04.272Z,9.27
2023-12-19T21:37:32.236Z,5.40
2023-12-19T21:40:00.047Z,5.43
2023-12-19T21:42:27.840Z,7.57
2023-12-19T21:44:55.521Z,4.50
2023-12-19T21:47:23.026Z,3.80
2023-12-19T21:49:50.522Z,3.43
2023-12-19T21:52:20.063Z,3.73
2023-12-19T21:54:47.622Z,2.90
2023-12-19T21:57:14.985Z,3.23
2023-12-19T21:59:44.716Z,2.80
2023-12-19T22:02:15.349Z,3.00
2023-12-19T22:04:42.930Z,2.77
2023-12-19T22:07:10.472Z,2.57
2023-12-19T22:09:40.986Z,3.10
2023-12-19T22:12:10.630Z,2.57
2023-12-19T22:14:37.896Z,2.70
2023-12-19T22:17:05.172Z,2.67
2023-12-19T22:19:32.619Z,2.90
2023-12-19T22:22:00.192Z,2.77
2023-12-19T22:24:27.586Z,2.67
2023-12-19T22:26:54.955Z,2.50
2023-12-19T22:29:22.246Z,2.70
2023-12-19T22:31:49.604Z,2.97
2023-12-19T22:34:16.964Z,3.17
2023-12-19T22:36:45.220Z,3.13
2023-12-19T22:39:13.048Z,3.20
2023-12-19T22:41:40.399Z,3.20
2023-12-19T22:44:07.678Z,3.30
2023-12-19T22:46:38.941Z,3.00
2023-12-19T22:49:06.299Z,2.73
2023-12-19T22:51:36.021Z,3.20
2023-12-19T22:54:03.355Z,2.90
2023-12-19T22:56:30.636Z,2.83
2023-12-19T22:58:58.129Z,2.70
2023-12-19T23:01:31.131Z,2.93
2023-12-19T23:03:58.895Z,2.63
2023-12-19T23:06:26.332Z,3.00
2023-12-19T23:08:54.103Z,2.80
2023-12-19T23:11:21.531Z,2.67
2023-12-19T23:13:49.051Z,2.80
2023-12-19T23:16:16.601Z,2.93
2023-12-19T23:18:44.440Z,2.50
2023-12-19T23:21:12.140Z,2.83
2023-12-19T23:23:39.537Z,2.77
2023-12-19T23:26:07.229Z,2.80
2023-12-19T23:28:34.652Z,2.70
2023-12-19T23:31:02.114Z,2.63
2023-12-19T23:33:29.488Z,2.73
2023-12-19T23:35:56.832Z,2.50
2023-12-19T23:38:24.123Z,2.60
2023-12-19T23:40:51.451Z,3.37
2023-12-19T23:43:19.913Z,3.00
2023-12-19T23:45:48.910Z,2.70
2023-12-19T23:48:17.034Z,3.10
2023-12-19T23:50:44.488Z,2.93
2023-12-19T23:53:11.879Z,2.53
2023-12-19T23:55:40.787Z,2.67
2023-12-19T23:58:10.894Z,2.53
